createdAt,value
2022-10-23T00:07:56.155Z,971.43
2022-10-23T00:17:56.316Z,971.29
2022-10-23T00:27:56.516Z,971.17
2022-10-23T00:37:56.865Z,971.07
2022-10-23T00:47:56.845Z,971.15
2022-10-23T00:57:56.998Z,971.05
2022-10-23T01:07:57.174Z,970.94
2022-10-23T01:17:57.312Z,970.99
2022-10-23T01:27:57.517Z,971.09
2022-10-23T01:37:57.657Z,970.93
2022-10-23T01:47:57.911Z,970.88
2022-10-23T01:57:57.967Z,970.68
2022-10-23T02:07:58.152Z,970.73
2022-10-23T02:17:58.288Z,970.68
2022-10-23T02:27:58.493Z,970.54
2022-10-23T02:37:58.630Z,970.45
2022-10-23T02:47:58.829Z,970.31
2022-10-23T02:57:58.987Z,970.09
2022-10-23T03:07:59.171Z,969.98
2022-10-23T03:17:59.315Z,970.04
2022-10-23T03:27:59.513Z,969.93
2022-10-23T03:37:59.647Z,970.03
2022-10-23T03:47:59.838Z,969.95
2022-10-23T03:57:59.987Z,969.82
2022-10-23T04:08:00.170Z,969.73
2022-10-23T04:18:00.306Z,969.73
2022-10-23T04:28:00.482Z,969.81
2022-10-23T04:38:00.614Z,969.89
2022-10-23T04:48:01.075Z,969.96
2022-10-23T04:58:01.021Z,969.80
2022-10-23T05:08:01.220Z,969.85
2022-10-23T05:18:01.360Z,969.85
2022-10-23T05:28:01.549Z,969.71
2022-10-23T05:38:01.677Z,969.73
2022-10-23T05:48:10.854Z,969.78
2022-10-23T05:58:03.021Z,969.73
2022-10-23T06:08:02.215Z,969.74
2022-10-23T06:18:02.371Z,969.66
2022-10-23T06:28:02.595Z,969.47
2022-10-23T06:38:02.720Z,969.38
2022-10-23T06:48:02.916Z,969.50
2022-10-23T06:58:03.064Z,969.48
2022-10-23T07:08:03.269Z,969.36
2022-10-23T07:18:03.339Z,969.39
2022-10-23T07:28:03.522Z,969.44
2022-10-23T07:38:03.681Z,969.42
2022-10-23T07:48:03.883Z,969.38
2022-10-23T07:58:04.189Z,969.50
2022-10-23T08:08:04.269Z,969.36
2022-10-23T08:18:04.412Z,969.12
2022-10-23T08:28:06.314Z,969.25
2022-10-23T08:38:04.726Z,969.00
2022-10-23T08:48:04.914Z,968.82
2022-10-23T08:58:05.235Z,968.78
2022-10-23T09:08:05.194Z,968.79
2022-10-23T09:18:05.321Z,968.85
2022-10-23T09:28:05.927Z,968.91
2022-10-23T09:38:05.685Z,968.74
2022-10-23T09:48:06.448Z,968.45
2022-10-23T09:58:06.036Z,968.38
2022-10-23T10:08:06.220Z,968.38
2022-10-23T10:18:06.352Z,968.30
2022-10-23T10:28:06.534Z,968.45
2022-10-23T10:38:06.668Z,968.25
2022-10-23T10:48:06.875Z,968.20
2022-10-23T10:58:07.025Z,967.98
2022-10-23T11:08:07.342Z,968.06
2022-10-23T11:18:07.374Z,968.01
2022-10-23T11:28:10.573Z,967.87
2022-10-23T11:38:07.676Z,967.80
2022-10-23T11:48:08.145Z,967.66
2022-10-23T11:58:07.960Z,967.37
2022-10-23T12:08:08.147Z,967.36
2022-10-23T12:18:08.338Z,967.06
2022-10-23T12:28:08.422Z,967.07
2022-10-23T12:38:08.562Z,966.99
2022-10-23T12:48:08.766Z,966.81
2022-10-23T12:58:08.926Z,966.57
2022-10-23T13:08:09.114Z,966.42
2022-10-23T13:18:09.252Z,966.22
2022-10-23T13:28:09.433Z,966.21
2022-10-23T13:38:09.568Z,966.16
2022-10-23T13:48:09.893Z,966.20
2022-10-23T13:58:09.931Z,966.18
2022-10-23T14:08:10.109Z,966.15
2022-10-23T14:18:10.246Z,966.19
2022-10-23T14:28:10.435Z,966.31
2022-10-23T14:38:10.578Z,966.20
2022-10-23T14:48:10.996Z,966.22
2022-10-23T14:58:10.926Z,966.23
2022-10-23T15:08:11.106Z,966.16
2022-10-23T15:18:11.223Z,966.03
2022-10-23T15:28:11.407Z,965.87
2022-10-23T15:38:11.542Z,965.86
2022-10-23T15:48:11.743Z,965.80
2022-10-23T15:58:11.894Z,965.73
2022-10-23T16:08:12.082Z,965.52
2022-10-23T16:18:12.248Z,965.57
2022-10-23T16:28:12.454Z,965.86
2022-10-23T16:38:12.609Z,965.77
2022-10-23T16:48:12.843Z,965.89
2022-10-23T16:58:13.065Z,965.61
2022-10-23T17:08:13.375Z,965.62
2022-10-23T17:18:13.302Z,965.49
2022-10-23T17:28:13.383Z,965.39
2022-10-23T17:38:13.562Z,965.51
2022-10-23T17:48:13.774Z,965.44
2022-10-23T17:58:14.112Z,966.16
2022-10-23T18:08:14.106Z,966.48
2022-10-23T18:18:14.255Z,966.44
2022-10-23T18:28:14.459Z,966.69
2022-10-23T18:38:14.601Z,966.73
2022-10-23T18:48:14.802Z,966.91
2022-10-23T18:58:14.955Z,967.05
2022-10-23T19:08:15.131Z,966.94
2022-10-23T19:18:15.259Z,967.03
2022-10-23T19:28:15.452Z,967.03
2022-10-23T19:38:15.585Z,967.48
2022-10-23T19:48:15.781Z,967.51
2022-10-23T19:58:15.931Z,967.50
2022-10-23T20:08:16.118Z,967.55
2022-10-23T20:18:16.258Z,967.61
2022-10-23T20:28:16.466Z,967.47
2022-10-23T20:38:16.590Z,967.60
2022-10-23T20:48:16.788Z,967.44
2022-10-23T20:58:16.939Z,967.57
2022-10-23T21:08:17.126Z,967.56
2022-10-23T21:18:26.391Z,967.76
2022-10-23T21:28:18.455Z,967.91
2022-10-23T21:38:17.596Z,967.96
2022-10-23T21:48:17.801Z,967.94
2022-10-23T21:58:17.943Z,967.89
2022-10-23T22:08:18.125Z,967.71
2022-10-23T22:18:18.263Z,967.73
2022-10-23T22:28:18.445Z,967.75
2022-10-23T22:38:18.577Z,967.67
2022-10-23T22:48:18.813Z,967.61
2022-10-23T22:58:18.854Z,967.70
2022-10-23T23:08:19.030Z,967.72
2022-10-23T23:18:19.160Z,967.76
2022-10-23T23:28:19.342Z,967.83
2022-10-23T23:38:19.474Z,967.73
2022-10-23T23:48:19.673Z,967.63
2022-10-23T23:58:20.118Z,967.63
